Country
Station

 

Weather  for  Kristiansand/Kjevik  -  Norway    Norway

  
26 °C (79 °F)
    
 
 

Current METAR for Kristiansand/Kjevik is :

ENCN 171120Z 05008KT 360V080 9999 VCSH FEW040CB FEW098 26/11 Q1013

 

This is a report for Kristiansand/Kjevik - Norway.
 
The report was made 15 minutes ago, at 11:20 UTC .
The wind was blowing at a speed of 4.1 meters per second (9.2 miles per hour) from northeast (050°), varying between north (360°) and east (080°).
 
The temperature was 26 °C (79 °F), with a dew-point at 11 °C (52 °F).
The temperature felt like 26 °C (79 °F).
 
The atmospheric pressure was 1013 hPa (29.91 inHg).
The relative humidity was 39.1%.
 
There were a few cumulonimbus clouds at a height of 1219 meters (4000 feet) and a few clouds at a height of 2987 meters (9800 feet).
 
The overall visibility was greater than 10 kilometers (6.2 miles).
 
Currently showers of in the vicinity.

 
 
 
 

Country :   A   B   C   D   E   F   G   H   I   J   K   L   M   N   O   P   Q   R   S   T   U   V   W   Y   Z

 

Site Info  |  Disclaimer  |  Credits  |  Privacy
Contact us  |  Add to favorites
© 2013-2018 METARs - All rights reserved